North Hadley, Massachusetts
Current Conditions -  °F | °C
As of 10:58 AM on Thursday 27 Nov 2014 (Local Time) from KCEF Reporting Station
Drizzle Drizzle  
Wind Chill: 33°   Ceiling: 8500
Heat Index: 33°   Visibility: 10mi
Dew Point: 29°   Wind: 0mph
Humidity: 85%   Direction: NA
Pressure: 29.97"   Gusts: NA
Location:  42.3561°N, 72.5677°W
Report Text: KCEF 271558Z AUTO 00000KT 10SM -DZ OVC085 00/M02 A2997 RMK AO2 UPE1516DZB1516 SLP157 P0000 T00041019
Loading
Personal Weather Stations






























Interactive Weather Map New forecast layout! Learn more

10-Day Weather Forecast

Advertisements
Track Severe Weather on mobile